sensor_id;sensor_type;location;lat;lon;timestamp;pressure;altitude;pressure_sealevel;temperature;humidity
69848;BME280;57143;55.940;37.496;2023-05-23T00:02:20;97933.06;;;12.14;100.00
69848;BME280;57143;55.940;37.496;2023-05-23T00:04:47;97927.91;;;12.08;100.00
69848;BME280;57143;55.940;37.496;2023-05-23T00:07:16;97898.31;;;12.11;100.00
69848;BME280;57143;55.940;37.496;2023-05-23T00:09:44;97883.63;;;12.12;100.00
69848;BME280;57143;55.940;37.496;2023-05-23T00:12:11;97864.63;;;12.07;100.00
69848;BME280;57143;55.940;37.496;2023-05-23T00:14:38;97841.25;;;12.06;100.00
69848;BME280;57143;55.940;37.496;2023-05-23T00:17:06;97827.72;;;12.11;100.00
69848;BME280;57143;55.940;37.496;2023-05-23T00:19:35;97817.09;;;12.10;100.00
69848;BME280;57143;55.940;37.496;2023-05-23T00:22:02;97798.91;;;12.10;100.00
69848;BME280;57143;55.940;37.496;2023-05-23T00:24:29;97790.75;;;12.10;100.00
69848;BME280;57143;55.940;37.496;2023-05-23T00:26:58;97739.75;;;11.92;100.00
69848;BME280;57143;55.940;37.496;2023-05-23T00:29:25;97759.00;;;12.11;100.00
69848;BME280;57143;55.940;37.496;2023-05-23T00:31:52;97738.34;;;12.10;100.00
69848;BME280;57143;55.940;37.496;2023-05-23T00:34:19;97708.75;;;12.03;100.00
69848;BME280;57143;55.940;37.496;2023-05-23T00:36:47;97707.69;;;12.09;100.00
69848;BME280;57143;55.940;37.496;2023-05-23T00:39:15;97684.59;;;12.02;100.00
69848;BME280;57143;55.940;37.496;2023-05-23T00:41:46;97662.31;;;12.05;100.00
69848;BME280;57143;55.940;37.496;2023-05-23T00:44:14;97631.38;;;12.06;100.00
69848;BME280;57143;55.940;37.496;2023-05-23T00:46:44;97616.16;;;12.05;100.00
69848;BME280;57143;55.940;37.496;2023-05-23T00:49:13;97579.53;;;12.02;100.00
69848;BME280;57143;55.940;37.496;2023-05-23T00:51:40;97553.47;;;12.01;100.00
69848;BME280;57143;55.940;37.496;2023-05-23T00:54:08;97527.44;;;11.95;100.00
69848;BME280;57143;55.940;37.496;2023-05-23T00:56:35;97525.78;;;11.94;100.00
69848;BME280;57143;55.940;37.496;2023-05-23T00:59:05;97502.72;;;11.97;100.00
69848;BME280;57143;55.940;37.496;2023-05-23T01:01:34;97469.31;;;11.96;100.00
69848;BME280;57143;55.940;37.496;2023-05-23T01:04:02;97449.25;;;11.97;100.00
69848;BME280;57143;55.940;37.496;2023-05-23T01:06:30;97423.75;;;11.93;100.00
69848;BME280;57143;55.940;37.496;2023-05-23T01:08:58;97402.84;;;11.94;100.00
69848;BME280;57143;55.940;37.496;2023-05-23T01:11:33;97373.56;;;11.91;100.00
69848;BME280;57143;55.940;37.496;2023-05-23T01:14:06;97356.38;;;12.00;100.00
69848;BME280;57143;55.940;37.496;2023-05-23T01:16:42;97343.03;;;12.04;100.00
69848;BME280;57143;55.940;37.496;2023-05-23T01:19:28;97316.41;;;12.06;100.00
69848;BME280;57143;55.940;37.496;2023-05-23T01:22:11;97317.97;;;12.12;100.00
69848;BME280;57143;55.940;37.496;2023-05-23T01:24:48;97325.28;;;12.16;100.00
69848;BME280;57143;55.940;37.496;2023-05-23T01:27:23;97337.19;;;12.20;100.00
69848;BME280;57143;55.940;37.496;2023-05-23T01:29:58;97345.03;;;12.27;100.00
69848;BME280;57143;55.940;37.496;2023-05-23T01:32:31;97361.56;;;12.30;100.00
69848;BME280;57143;55.940;37.496;2023-05-23T01:34:58;97370.44;;;12.36;100.00
69848;BME280;57143;55.940;37.496;2023-05-23T01:37:26;97397.06;;;12.39;100.00
69848;BME280;57143;55.940;37.496;2023-05-23T01:39:54;97430.47;;;12.39;100.00
69848;BME280;57143;55.940;37.496;2023-05-23T01:42:21;97456.63;;;12.25;100.00
69848;BME280;57143;55.940;37.496;2023-05-23T01:44:48;97487.88;;;12.28;100.00
69848;BME280;57143;55.940;37.496;2023-05-23T01:47:17;97507.91;;;12.37;100.00
69848;BME280;57143;55.940;37.496;2023-05-23T01:49:46;97529.66;;;12.37;100.00
69848;BME280;57143;55.940;37.496;2023-05-23T01:52:14;97556.47;;;12.48;100.00
69848;BME280;57143;55.940;37.496;2023-05-23T01:54:42;97573.00;;;12.52;100.00
69848;BME280;57143;55.940;37.496;2023-05-23T01:57:09;97597.97;;;12.59;100.00
69848;BME280;57143;55.940;37.496;2023-05-23T01:59:37;97632.44;;;12.63;100.00
69848;BME280;57143;55.940;37.496;2023-05-23T02:02:04;97652.50;;;12.72;100.00
69848;BME280;57143;55.940;37.496;2023-05-23T02:04:33;97684.34;;;13.16;100.00
69848;BME280;57143;55.940;37.496;2023-05-23T02:07:00;97674.25;;;13.83;100.00
69848;BME280;57143;55.940;37.496;2023-05-23T02:09:27;97701.47;;;14.36;100.00
69848;BME280;57143;55.940;37.496;2023-05-23T02:11:55;97772.88;;;14.09;100.00
69848;BME280;57143;55.940;37.496;2023-05-23T02:14:22;97846.06;;;13.87;100.00
69848;BME280;57143;55.940;37.496;2023-05-23T02:16:51;97905.44;;;14.29;100.00
69848;BME280;57143;55.940;37.496;2023-05-23T02:19:18;97939.13;;;15.00;100.00
69848;BME280;57143;55.940;37.496;2023-05-23T02:21:47;98000.16;;;15.33;100.00
69848;BME280;57143;55.940;37.496;2023-05-23T02:24:14;98093.94;;;15.52;100.00
69848;BME280;57143;55.940;37.496;2023-05-23T02:26:41;98188.66;;;15.56;100.00
69848;BME280;57143;55.940;37.496;2023-05-23T02:29:08;98226.97;;;15.46;100.00
69848;BME280;57143;55.940;37.496;2023-05-23T02:31:35;98333.84;;;15.73;100.00
69848;BME280;57143;55.940;37.496;2023-05-23T02:34:02;98402.03;;;15.40;100.00
69848;BME280;57143;55.940;37.496;2023-05-23T02:36:30;98438.16;;;15.12;100.00
69848;BME280;57143;55.940;37.496;2023-05-23T02:38:59;98470.06;;;15.21;100.00
69848;BME280;57143;55.940;37.496;2023-05-23T02:41:26;98482.03;;;15.40;100.00
69848;BME280;57143;55.940;37.496;2023-05-23T02:43:53;98482.34;;;15.97;100.00
69848;BME280;57143;55.940;37.496;2023-05-23T02:46:21;98498.50;;;16.33;100.00
69848;BME280;57143;55.940;37.496;2023-05-23T02:48:48;98510.94;;;16.92;100.00
69848;BME280;57143;55.940;37.496;2023-05-23T02:51:15;98531.56;;;17.42;100.00
69848;BME280;57143;55.940;37.496;2023-05-23T02:53:42;98572.69;;;17.66;100.00
69848;BME280;57143;55.940;37.496;2023-05-23T02:56:11;98619.44;;;18.03;100.00
69848;BME280;57143;55.940;37.496;2023-05-23T02:58:38;98653.22;;;18.22;100.00
69848;BME280;57143;55.940;37.496;2023-05-23T03:01:05;98673.81;;;18.43;100.00
69848;BME280;57143;55.940;37.496;2023-05-23T03:03:33;98708.06;;;18.51;100.00
69848;BME280;57143;55.940;37.496;2023-05-23T03:06:01;98730.84;;;18.51;100.00
69848;BME280;57143;55.940;37.496;2023-05-23T03:08:30;98755.75;;;18.26;100.00
69848;BME280;57143;55.940;37.496;2023-05-23T03:10:57;98761.59;;;17.91;100.00
69848;BME280;57143;55.940;37.496;2023-05-23T03:13:25;98772.63;;;17.42;100.00
69848;BME280;57143;55.940;37.496;2023-05-23T03:15:52;98760.34;;;16.81;100.00
69848;BME280;57143;55.940;37.496;2023-05-23T03:18:19;98744.13;;;16.31;100.00
69848;BME280;57143;55.940;37.496;2023-05-23T03:20:47;98742.84;;;15.63;100.00
69848;BME280;57143;55.940;37.496;2023-05-23T03:23:14;98722.63;;;15.49;100.00
69848;BME280;57143;55.940;37.496;2023-05-23T03:25:41;98712.72;;;15.28;100.00
69848;BME280;57143;55.940;37.496;2023-05-23T03:28:09;98697.72;;;15.25;100.00
69848;BME280;57143;55.940;37.496;2023-05-23T03:30:38;98699.63;;;15.35;100.00
69848;BME280;57143;55.940;37.496;2023-05-23T03:33:05;98697.44;;;15.22;100.00
69848;BME280;57143;55.940;37.496;2023-05-23T03:35:32;98691.72;;;15.18;100.00
69848;BME280;57143;55.940;37.496;2023-05-23T03:37:59;98679.69;;;15.34;100.00
69848;BME280;57143;55.940;37.496;2023-05-23T03:40:27;98669.31;;;15.31;100.00
69848;BME280;57143;55.940;37.496;2023-05-23T03:43:05;98682.97;;;15.31;100.00
69848;BME280;57143;55.940;37.496;2023-05-23T03:45:32;98684.91;;;15.36;100.00
69848;BME280;57143;55.940;37.496;2023-05-23T03:48:01;98682.69;;;15.18;100.00
69848;BME280;57143;55.940;37.496;2023-05-23T03:50:28;98701.81;;;15.23;100.00
69848;BME280;57143;55.940;37.496;2023-05-23T03:52:55;98693.91;;;15.21;100.00
69848;BME280;57143;55.940;37.496;2023-05-23T03:55:23;98695.53;;;15.22;100.00
69848;BME280;57143;55.940;37.496;2023-05-23T03:57:51;98699.06;;;15.38;100.00
69848;BME280;57143;55.940;37.496;2023-05-23T04:00:18;98691.75;;;15.43;100.00
69848;BME280;57143;55.940;37.496;2023-05-23T04:02:45;98694.47;;;15.43;100.00
69848;BME280;57143;55.940;37.496;2023-05-23T04:05:14;98685.72;;;15.46;100.00
69848;BME280;57143;55.940;37.496;2023-05-23T04:07:42;98678.66;;;15.45;100.00
69848;BME280;57143;55.940;37.496;2023-05-23T04:10:09;98684.66;;;15.52;100.00
69848;BME280;57143;55.940;37.496;2023-05-23T04:12:36;98669.06;;;15.68;100.00
69848;BME280;57143;55.940;37.496;2023-05-23T04:15:07;98663.31;;;15.74;100.00
69848;BME280;57143;55.940;37.496;2023-05-23T04:17:34;98681.63;;;15.54;100.00
69848;BME280;57143;55.940;37.496;2023-05-23T04:20:06;98668.53;;;15.66;100.00
69848;BME280;57143;55.940;37.496;2023-05-23T04:22:35;98674.28;;;15.59;100.00
69848;BME280;57143;55.940;37.496;2023-05-23T04:25:03;98660.63;;;15.44;100.00
69848;BME280;57143;55.940;37.496;2023-05-23T04:27:31;98666.09;;;15.54;100.00
69848;BME280;57143;55.940;37.496;2023-05-23T04:29:59;98658.69;;;15.45;100.00
69848;BME280;57143;55.940;37.496;2023-05-23T04:32:26;98664.69;;;15.32;100.00
69848;BME280;57143;55.940;37.496;2023-05-23T04:34:53;98640.41;;;15.30;100.00
69848;BME280;57143;55.940;37.496;2023-05-23T04:37:21;98645.31;;;15.18;100.00
69848;BME280;57143;55.940;37.496;2023-05-23T04:39:52;98641.47;;;15.24;100.00
69848;BME280;57143;55.940;37.496;2023-05-23T04:42:19;98645.59;;;15.27;100.00
69848;BME280;57143;55.940;37.496;2023-05-23T04:44:49;98652.13;;;15.31;100.00
69848;BME280;57143;55.940;37.496;2023-05-23T04:47:17;98647.47;;;15.31;100.00
69848;BME280;57143;55.940;37.496;2023-05-23T04:49:44;98657.88;;;15.54;100.00
69848;BME280;57143;55.940;37.496;2023-05-23T04:52:12;98667.69;;;15.70;100.00
69848;BME280;57143;55.940;37.496;2023-05-23T04:54:39;98682.16;;;15.91;100.00
69848;BME280;57143;55.940;37.496;2023-05-23T04:57:11;98674.13;;;16.19;100.00
69848;BME280;57143;55.940;37.496;2023-05-23T04:59:38;98691.75;;;16.62;100.00
69848;BME280;57143;55.940;37.496;2023-05-23T05:02:07;98691.91;;;16.91;100.00
69848;BME280;57143;55.940;37.496;2023-05-23T05:04:34;98727.31;;;17.16;100.00
69848;BME280;57143;55.940;37.496;2023-05-23T05:07:02;98746.78;;;17.14;100.00
69848;BME280;57143;55.940;37.496;2023-05-23T05:09:29;98748.44;;;17.10;100.00
69848;BME280;57143;55.940;37.496;2023-05-23T05:11:57;98754.16;;;17.14;100.00
69848;BME280;57143;55.940;37.496;2023-05-23T05:14:26;98766.28;;;17.03;100.00
69848;BME280;57143;55.940;37.496;2023-05-23T05:16:53;98759.09;;;17.12;100.00
69848;BME280;57143;55.940;37.496;2023-05-23T05:19:22;98760.63;;;16.84;100.00
69848;BME280;57143;55.940;37.496;2023-05-23T05:21:49;98783.13;;;16.71;100.00
69848;BME280;57143;55.940;37.496;2023-05-23T05:24:17;98771.91;;;16.68;100.00
69848;BME280;57143;55.940;37.496;2023-05-23T05:26:45;98763.41;;;16.69;100.00
69848;BME280;57143;55.940;37.496;2023-05-23T05:29:14;98759.66;;;16.50;100.00
69848;BME280;57143;55.940;37.496;2023-05-23T05:31:42;98765.13;;;16.45;100.00
69848;BME280;57143;55.940;37.496;2023-05-23T05:34:10;98763.16;;;16.66;100.00
69848;BME280;57143;55.940;37.496;2023-05-23T05:36:37;98754.41;;;16.64;100.00
69848;BME280;57143;55.940;37.496;2023-05-23T05:39:10;98770.53;;;16.65;100.00
69848;BME280;57143;55.940;37.496;2023-05-23T05:41:38;98761.72;;;16.83;100.00
69848;BME280;57143;55.940;37.496;2023-05-23T05:44:06;98756.78;;;16.90;100.00
69848;BME280;57143;55.940;37.496;2023-05-23T05:46:34;98773.47;;;16.89;100.00
69848;BME280;57143;55.940;37.496;2023-05-23T05:49:02;98778.69;;;16.85;100.00
69848;BME280;57143;55.940;37.496;2023-05-23T05:51:29;98777.53;;;16.96;100.00
69848;BME280;57143;55.940;37.496;2023-05-23T05:53:57;98762.47;;;16.99;100.00
69848;BME280;57143;55.940;37.496;2023-05-23T05:56:24;98767.16;;;16.93;100.00
69848;BME280;57143;55.940;37.496;2023-05-23T05:58:52;98758.41;;;16.91;100.00
69848;BME280;57143;55.940;37.496;2023-05-23T06:01:20;98752.91;;;17.01;100.00
69848;BME280;57143;55.940;37.496;2023-05-23T06:03:48;98752.59;;;17.03;100.00
69848;BME280;57143;55.940;37.496;2023-05-23T06:06:16;98750.94;;;17.02;100.00
69848;BME280;57143;55.940;37.496;2023-05-23T06:08:44;98746.34;;;16.97;100.00
69848;BME280;57143;55.940;37.496;2023-05-23T06:11:11;98732.63;;;17.02;100.00
69848;BME280;57143;55.940;37.496;2023-05-23T06:13:38;98736.50;;;16.91;100.00
69848;BME280;57143;55.940;37.496;2023-05-23T06:16:05;98729.13;;;16.87;100.00
69848;BME280;57143;55.940;37.496;2023-05-23T06:18:33;98720.09;;;16.86;100.00
69848;BME280;57143;55.940;37.496;2023-05-23T06:21:00;98699.22;;;17.00;100.00
69848;BME280;57143;55.940;37.496;2023-05-23T06:23:29;98693.97;;;17.09;100.00
69848;BME280;57143;55.940;37.496;2023-05-23T06:25:57;98708.72;;;17.13;100.00
69848;BME280;57143;55.940;37.496;2023-05-23T06:28:24;98702.75;;;17.06;100.00
69848;BME280;57143;55.940;37.496;2023-05-23T06:30:52;98693.75;;;17.00;100.00
69848;BME280;57143;55.940;37.496;2023-05-23T06:33:19;98686.28;;;17.11;100.00
69848;BME280;57143;55.940;37.496;2023-05-23T06:35:46;98690.63;;;17.17;100.00
69848;BME280;57143;55.940;37.496;2023-05-23T06:38:13;98678.78;;;17.26;100.00
69848;BME280;57143;55.940;37.496;2023-05-23T06:40:42;98677.81;;;17.51;100.00
69848;BME280;57143;55.940;37.496;2023-05-23T06:43:09;98685.53;;;17.73;100.00
69848;BME280;57143;55.940;37.496;2023-05-23T06:45:36;98666.91;;;17.98;100.00
69848;BME280;57143;55.940;37.496;2023-05-23T06:48:04;98666.53;;;18.33;100.00
69848;BME280;57143;55.940;37.496;2023-05-23T06:50:31;98697.47;;;18.63;100.00
69848;BME280;57143;55.940;37.496;2023-05-23T06:52:58;98704.94;;;18.81;100.00
69848;BME280;57143;55.940;37.496;2023-05-23T06:55:26;98713.03;;;18.91;100.00
69848;BME280;57143;55.940;37.496;2023-05-23T06:57:54;98711.50;;;18.80;100.00
69848;BME280;57143;55.940;37.496;2023-05-23T07:00:21;98726.16;;;18.94;100.00
69848;BME280;57143;55.940;37.496;2023-05-23T07:02:48;98741.03;;;19.11;100.00
69848;BME280;57143;55.940;37.496;2023-05-23T07:05:16;98735.75;;;19.15;100.00
69848;BME280;57143;55.940;37.496;2023-05-23T07:07:43;98733.19;;;19.42;100.00
69848;BME280;57143;55.940;37.496;2023-05-23T07:10:10;98725.56;;;19.71;100.00
69848;BME280;57143;55.940;37.496;2023-05-23T07:12:37;98719.13;;;19.62;100.00
69848;BME280;57143;55.940;37.496;2023-05-23T07:15:07;98739.13;;;19.81;100.00
69848;BME280;57143;55.940;37.496;2023-05-23T07:17:35;98719.19;;;20.21;100.00
69848;BME280;57143;55.940;37.496;2023-05-23T07:20:02;98724.50;;;20.45;100.00
69848;BME280;57143;55.940;37.496;2023-05-23T07:22:30;98702.72;;;21.25;100.00
69848;BME280;57143;55.940;37.496;2023-05-23T07:24:58;98761.84;;;20.92;100.00
69848;BME280;57143;55.940;37.496;2023-05-23T07:27:25;98750.94;;;21.14;100.00
69848;BME280;57143;55.940;37.496;2023-05-23T07:29:53;98773.59;;;21.24;100.00
69848;BME280;57143;55.940;37.496;2023-05-23T07:32:23;98774.00;;;21.18;100.00
69848;BME280;57143;55.940;37.496;2023-05-23T07:34:50;98792.69;;;21.07;100.00
69848;BME280;57143;55.940;37.496;2023-05-23T07:37:18;98793.78;;;21.20;100.00
69848;BME280;57143;55.940;37.496;2023-05-23T07:39:45;98798.19;;;21.07;100.00
69848;BME280;57143;55.940;37.496;2023-05-23T07:42:12;98802.69;;;21.17;100.00
69848;BME280;57143;55.940;37.496;2023-05-23T07:44:40;98813.50;;;21.27;100.00
69848;BME280;57143;55.940;37.496;2023-05-23T07:47:07;98821.44;;;21.28;100.00
69848;BME280;57143;55.940;37.496;2023-05-23T07:49:36;98830.13;;;21.35;100.00
69848;BME280;57143;55.940;37.496;2023-05-23T07:52:03;98844.75;;;21.22;100.00
69848;BME280;57143;55.940;37.496;2023-05-23T07:54:31;98850.44;;;21.12;100.00
69848;BME280;57143;55.940;37.496;2023-05-23T07:56:59;98839.13;;;21.27;100.00
69848;BME280;57143;55.940;37.496;2023-05-23T07:59:26;98815.31;;;21.31;100.00
69848;BME280;57143;55.940;37.496;2023-05-23T08:01:54;98838.06;;;21.50;100.00
69848;BME280;57143;55.940;37.496;2023-05-23T08:04:21;98843.78;;;21.40;100.00
69848;BME280;57143;55.940;37.496;2023-05-23T08:06:50;98836.25;;;21.46;100.00
69848;BME280;57143;55.940;37.496;2023-05-23T08:09:18;98838.69;;;21.47;100.00
69848;BME280;57143;55.940;37.496;2023-05-23T08:11:45;98835.53;;;21.27;100.00
69848;BME280;57143;55.940;37.496;2023-05-23T08:14:12;98825.63;;;21.39;100.00
69848;BME280;57143;55.940;37.496;2023-05-23T08:16:39;98816.84;;;21.37;100.00
69848;BME280;57143;55.940;37.496;2023-05-23T08:19:07;98811.84;;;21.39;100.00
69848;BME280;57143;55.940;37.496;2023-05-23T08:21:34;98781.75;;;21.65;100.00
69848;BME280;57143;55.940;37.496;2023-05-23T08:24:03;98786.22;;;21.39;100.00
69848;BME280;57143;55.940;37.496;2023-05-23T08:26:30;98763.81;;;21.05;100.00
69848;BME280;57143;55.940;37.496;2023-05-23T08:28:59;98748.06;;;21.19;100.00
69848;BME280;57143;55.940;37.496;2023-05-23T08:31:28;98750.56;;;21.42;100.00
69848;BME280;57143;55.940;37.496;2023-05-23T08:33:55;98755.72;;;21.22;100.00
69848;BME280;57143;55.940;37.496;2023-05-23T08:36:22;98724.78;;;21.25;100.00
69848;BME280;57143;55.940;37.496;2023-05-23T08:38:50;98737.25;;;20.95;100.00
69848;BME280;57143;55.940;37.496;2023-05-23T08:41:20;98729.00;;;20.82;100.00
69848;BME280;57143;55.940;37.496;2023-05-23T08:43:47;98681.28;;;20.86;100.00
69848;BME280;57143;55.940;37.496;2023-05-23T08:46:15;98706.25;;;20.90;100.00
69848;BME280;57143;55.940;37.496;2023-05-23T08:48:43;98689.38;;;21.18;100.00
69848;BME280;57143;55.940;37.496;2023-05-23T08:51:16;98709.53;;;21.05;100.00
69848;BME280;57143;55.940;37.496;2023-05-23T08:53:45;98712.88;;;21.02;100.00
69848;BME280;57143;55.940;37.496;2023-05-23T08:56:14;98706.94;;;20.95;100.00
69848;BME280;57143;55.940;37.496;2023-05-23T08:58:44;98695.13;;;20.95;100.00
69848;BME280;57143;55.940;37.496;2023-05-23T09:01:12;98676.34;;;20.97;100.00
69848;BME280;57143;55.940;37.496;2023-05-23T09:03:43;98667.75;;;21.12;100.00
69848;BME280;57143;55.940;37.496;2023-05-23T09:06:10;98674.50;;;21.41;100.00
69848;BME280;57143;55.940;37.496;2023-05-23T09:08:38;98683.03;;;21.53;100.00
69848;BME280;57143;55.940;37.496;2023-05-23T09:11:05;98690.72;;;21.07;100.00
69848;BME280;57143;55.940;37.496;2023-05-23T09:13:33;98686.03;;;21.08;100.00
69848;BME280;57143;55.940;37.496;2023-05-23T09:16:02;98681.50;;;21.25;100.00
69848;BME280;57143;55.940;37.496;2023-05-23T09:18:35;98685.56;;;21.28;100.00
69848;BME280;57143;55.940;37.496;2023-05-23T09:21:03;98715.09;;;21.27;100.00
69848;BME280;57143;55.940;37.496;2023-05-23T09:23:31;98709.03;;;21.03;100.00
69848;BME280;57143;55.940;37.496;2023-05-23T09:26:01;98729.78;;;21.23;100.00
69848;BME280;57143;55.940;37.496;2023-05-23T09:28:29;98740.22;;;21.12;100.00
69848;BME280;57143;55.940;37.496;2023-05-23T09:30:57;98725.13;;;21.10;100.00
69848;BME280;57143;55.940;37.496;2023-05-23T09:33:34;98709.53;;;21.05;100.00
69848;BME280;57143;55.940;37.496;2023-05-23T09:36:03;98718.75;;;21.36;100.00
69848;BME280;57143;55.940;37.496;2023-05-23T09:38:30;98718.78;;;21.09;100.00
69848;BME280;57143;55.940;37.496;2023-05-23T09:40:58;98720.63;;;21.14;100.00
69848;BME280;57143;55.940;37.496;2023-05-23T09:43:26;98758.06;;;20.47;100.00
69848;BME280;57143;55.940;37.496;2023-05-23T09:45:54;98702.69;;;20.21;100.00
69848;BME280;57143;55.940;37.496;2023-05-23T09:48:28;98677.22;;;20.56;100.00
69848;BME280;57143;55.940;37.496;2023-05-23T09:50:56;98656.19;;;20.60;100.00
69848;BME280;57143;55.940;37.496;2023-05-23T09:53:24;98689.97;;;20.39;100.00
69848;BME280;57143;55.940;37.496;2023-05-23T09:55:52;98693.78;;;20.11;100.00
69848;BME280;57143;55.940;37.496;2023-05-23T09:58:22;98693.19;;;20.14;100.00
69848;BME280;57143;55.940;37.496;2023-05-23T10:00:50;98669.00;;;20.11;100.00
69848;BME280;57143;55.940;37.496;2023-05-23T10:03:22;98638.03;;;19.46;100.00
69848;BME280;57143;55.940;37.496;2023-05-23T10:05:56;98677.63;;;19.77;100.00
69848;BME280;57143;55.940;37.496;2023-05-23T10:08:29;98670.25;;;19.73;100.00
69848;BME280;57143;55.940;37.496;2023-05-23T10:14:15;98653.78;;;19.40;100.00
69848;BME280;57143;55.940;37.496;2023-05-23T10:16:52;98668.78;;;19.11;100.00
69848;BME280;57143;55.940;37.496;2023-05-23T10:19:23;98649.50;;;18.97;100.00
69848;BME280;57143;55.940;37.496;2023-05-23T10:21:57;98616.91;;;19.09;100.00
69848;BME280;57143;55.940;37.496;2023-05-23T10:24:25;98601.69;;;18.98;100.00
69848;BME280;57143;55.940;37.496;2023-05-23T10:26:53;98564.78;;;19.04;100.00
69848;BME280;57143;55.940;37.496;2023-05-23T10:29:21;98549.34;;;19.40;100.00
69848;BME280;57143;55.940;37.496;2023-05-23T10:31:49;98563.22;;;19.17;100.00
69848;BME280;57143;55.940;37.496;2023-05-23T10:34:23;98529.09;;;19.04;100.00
69848;BME280;57143;55.940;37.496;2023-05-23T10:36:59;98533.88;;;19.31;100.00
69848;BME280;57143;55.940;37.496;2023-05-23T10:39:45;98527.56;;;19.44;100.00
69848;BME280;57143;55.940;37.496;2023-05-23T10:42:19;98535.44;;;19.18;100.00
69848;BME280;57143;55.940;37.496;2023-05-23T10:44:50;98543.25;;;19.11;100.00
69848;BME280;57143;55.940;37.496;2023-05-23T10:47:25;98526.38;;;19.18;100.00
69848;BME280;57143;55.940;37.496;2023-05-23T10:49:54;98502.56;;;19.13;100.00
69848;BME280;57143;55.940;37.496;2023-05-23T10:52:23;98507.88;;;19.23;100.00
69848;BME280;57143;55.940;37.496;2023-05-23T10:54:53;98497.63;;;19.29;100.00
69848;BME280;57143;55.940;37.496;2023-05-23T10:57:21;98500.03;;;19.17;100.00
69848;BME280;57143;55.940;37.496;2023-05-23T10:59:52;98506.16;;;18.95;100.00
69848;BME280;57143;55.940;37.496;2023-05-23T11:02:26;98496.91;;;18.91;100.00
69848;BME280;57143;55.940;37.496;2023-05-23T11:05:17;98500.94;;;18.80;100.00
69848;BME280;57143;55.940;37.496;2023-05-23T11:08:05;98464.47;;;18.61;100.00
69848;BME280;57143;55.940;37.496;2023-05-23T11:10:32;98480.25;;;18.69;100.00
69848;BME280;57143;55.940;37.496;2023-05-23T11:13:18;98466.44;;;18.74;100.00
69848;BME280;57143;55.940;37.496;2023-05-23T11:15:46;98454.09;;;18.58;100.00
69848;BME280;57143;55.940;37.496;2023-05-23T11:18:19;98410.13;;;18.26;100.00
69848;BME280;57143;55.940;37.496;2023-05-23T11:20:49;98427.47;;;18.40;100.00
69848;BME280;57143;55.940;37.496;2023-05-23T11:23:19;98392.88;;;18.25;100.00
69848;BME280;57143;55.940;37.496;2023-05-23T11:25:48;98374.03;;;18.19;100.00
69848;BME280;57143;55.940;37.496;2023-05-23T11:28:16;98363.31;;;18.04;100.00
69848;BME280;57143;55.940;37.496;2023-05-23T11:30:43;98339.00;;;17.97;100.00
69848;BME280;57143;55.940;37.496;2023-05-23T11:33:14;98337.81;;;17.85;100.00
69848;BME280;57143;55.940;37.496;2023-05-23T11:35:44;98325.41;;;17.74;100.00
69848;BME280;57143;55.940;37.496;2023-05-23T11:38:13;98306.06;;;17.65;100.00
69848;BME280;57143;55.940;37.496;2023-05-23T11:40:43;98291.94;;;17.58;100.00
69848;BME280;57143;55.940;37.496;2023-05-23T11:43:12;98266.53;;;17.53;100.00
69848;BME280;57143;55.940;37.496;2023-05-23T11:45:40;98241.84;;;17.34;100.00
69848;BME280;57143;55.940;37.496;2023-05-23T11:48:07;98237.25;;;17.29;100.00
69848;BME280;57143;55.940;37.496;2023-05-23T11:50:43;98228.16;;;17.34;100.00
69848;BME280;57143;55.940;37.496;2023-05-23T11:53:10;98210.81;;;17.39;100.00
69848;BME280;57143;55.940;37.496;2023-05-23T11:55:39;98196.09;;;17.34;100.00
69848;BME280;57143;55.940;37.496;2023-05-23T11:58:08;98179.88;;;17.38;100.00
69848;BME280;57143;55.940;37.496;2023-05-23T12:00:42;98159.69;;;17.34;100.00
69848;BME280;57143;55.940;37.496;2023-05-23T12:03:09;98150.81;;;17.23;100.00
69848;BME280;57143;55.940;37.496;2023-05-23T12:05:37;98143.47;;;17.19;100.00
69848;BME280;57143;55.940;37.496;2023-05-23T12:08:05;98130.31;;;17.21;100.00
69848;BME280;57143;55.940;37.496;2023-05-23T12:10:32;98125.06;;;17.24;100.00
69848;BME280;57143;55.940;37.496;2023-05-23T12:12:59;98107.31;;;17.22;100.00
69848;BME280;57143;55.940;37.496;2023-05-23T12:15:29;98106.19;;;17.23;100.00
69848;BME280;57143;55.940;37.496;2023-05-23T12:17:56;98098.56;;;17.20;100.00
69848;BME280;57143;55.940;37.496;2023-05-23T12:20:24;98073.06;;;17.38;100.00
69848;BME280;57143;55.940;37.496;2023-05-23T12:22:53;98064.19;;;17.46;100.00
69848;BME280;57143;55.940;37.496;2023-05-23T12:25:21;98054.19;;;17.37;100.00
69848;BME280;57143;55.940;37.496;2023-05-23T12:27:48;98057.66;;;17.42;100.00
69848;BME280;57143;55.940;37.496;2023-05-23T12:30:16;98048.09;;;17.40;100.00
69848;BME280;57143;55.940;37.496;2023-05-23T12:32:45;98055.28;;;17.68;100.00
69848;BME280;57143;55.940;37.496;2023-05-23T12:35:13;98059.72;;;17.64;100.00
69848;BME280;57143;55.940;37.496;2023-05-23T12:37:43;98067.78;;;17.74;100.00
69848;BME280;57143;55.940;37.496;2023-05-23T12:40:12;98089.31;;;17.94;100.00
69848;BME280;57143;55.940;37.496;2023-05-23T12:42:48;98103.75;;;17.99;100.00
69848;BME280;57143;55.940;37.496;2023-05-23T12:45:16;98109.44;;;18.16;100.00
69848;BME280;57143;55.940;37.496;2023-05-23T12:47:45;98121.13;;;18.22;100.00
69848;BME280;57143;55.940;37.496;2023-05-23T12:50:12;98135.03;;;18.12;100.00
69848;BME280;57143;55.940;37.496;2023-05-23T12:52:40;98160.81;;;18.24;100.00